createdAt,value
2022-10-05T00:01:32.008Z,9.02
2022-10-05T00:04:34.195Z,8.32
2022-10-05T00:07:36.441Z,8.45
2022-10-05T00:10:43.583Z,8.95
2022-10-05T00:13:47.200Z,7.53
2022-10-05T00:16:50.356Z,9.63
2022-10-05T00:19:54.290Z,8.30
2022-10-05T00:22:58.669Z,8.68
2022-10-05T00:26:27.069Z,8.32
2022-10-05T00:29:29.226Z,8.20
2022-10-05T00:32:33.217Z,8.68
2022-10-05T00:35:36.417Z,8.68
2022-10-05T00:38:39.129Z,8.38
2022-10-05T00:42:04.522Z,8.68
2022-10-05T00:45:31.438Z,9.07
2022-10-05T00:48:54.535Z,9.88
2022-10-05T00:52:20.450Z,10.55
2022-10-05T00:55:43.603Z,8.15
2022-10-05T00:59:03.954Z,8.48
2022-10-05T01:02:29.279Z,9.05
2022-10-05T01:05:37.412Z,8.10
2022-10-05T01:09:04.220Z,9.43
2022-10-05T01:12:40.666Z,8.65
2022-10-05T01:15:54.598Z,9.48
2022-10-05T01:18:59.688Z,9.30
2022-10-05T01:22:29.904Z,10.50
2022-10-05T01:25:56.010Z,9.45
2022-10-05T01:29:22.911Z,8.98
2022-10-05T01:32:39.998Z,9.23
2022-10-05T01:35:51.391Z,8.73
2022-10-05T01:39:14.224Z,9.52
2022-10-05T01:42:31.687Z,8.85
2022-10-05T01:46:00.634Z,9.38
2022-10-05T01:49:13.784Z,10.43
2022-10-05T01:52:35.328Z,9.93
2022-10-05T01:55:57.096Z,8.65
2022-10-05T01:59:24.162Z,10.30
2022-10-05T02:02:29.045Z,8.45
2022-10-05T02:06:00.710Z,11.50
2022-10-05T02:09:25.399Z,8.63
2022-10-05T02:12:32.835Z,9.57
2022-10-05T02:15:44.207Z,8.88
2022-10-05T02:18:53.046Z,9.32
2022-10-05T02:22:03.510Z,7.82
2022-10-05T02:25:13.812Z,9.55
2022-10-05T02:28:23.630Z,9.57
2022-10-05T02:31:45.964Z,10.73
2022-10-05T02:34:48.269Z,10.20
2022-10-05T02:38:14.783Z,10.18
2022-10-05T02:41:42.358Z,10.57
2022-10-05T02:52:19.064Z,10.52
2022-10-05T02:55:27.092Z,10.18
2022-10-05T02:58:37.463Z,8.23
2022-10-05T03:01:54.618Z,10.15
2022-10-05T03:05:11.809Z,11.00
2022-10-05T03:08:20.145Z,8.32
2022-10-05T03:11:48.571Z,8.52
2022-10-05T03:15:12.886Z,10.20
2022-10-05T03:18:45.766Z,9.88
2022-10-05T03:22:29.876Z,9.95
2022-10-05T03:25:51.394Z,9.73
2022-10-05T03:29:15.168Z,10.90
2022-10-05T03:32:39.657Z,9.70
2022-10-05T03:36:17.687Z,9.68
2022-10-05T03:39:35.707Z,9.80
2022-10-05T03:42:57.031Z,9.82
2022-10-05T03:46:30.942Z,7.28
2022-10-05T03:49:42.215Z,8.45
2022-10-05T03:53:25.005Z,9.65
2022-10-05T03:56:33.567Z,8.50
2022-10-05T03:59:58.922Z,8.82
2022-10-05T04:03:17.445Z,9.25
2022-10-05T04:06:29.538Z,11.07
2022-10-05T04:09:43.091Z,9.65
2022-10-05T04:12:51.350Z,9.80
2022-10-05T04:16:12.631Z,9.18
2022-10-05T04:19:23.611Z,10.57
2022-10-05T04:22:40.768Z,10.07
2022-10-05T04:25:56.129Z,9.05
2022-10-05T04:32:31.387Z,12.07
2022-10-05T04:35:39.443Z,10.35
2022-10-05T04:39:23.939Z,11.02
2022-10-05T04:42:40.348Z,10.40
2022-10-05T04:49:54.129Z,10.70
2022-10-05T04:53:30.652Z,10.40
2022-10-05T05:04:25.339Z,10.45
2022-10-05T05:07:59.438Z,9.43
2022-10-05T05:11:27.148Z,11.65
2022-10-05T05:14:32.444Z,8.57
2022-10-05T05:17:52.667Z,10.23
2022-10-05T05:21:26.204Z,9.98
2022-10-05T05:24:36.498Z,10.05
2022-10-05T05:28:01.423Z,10.63
2022-10-05T05:31:15.715Z,9.82
2022-10-05T05:34:48.488Z,10.30
2022-10-05T05:37:53.806Z,9.40
2022-10-05T05:41:29.930Z,9.30
2022-10-05T05:44:41.597Z,9.88
2022-10-05T05:47:52.186Z,9.98
2022-10-05T05:51:05.077Z,9.75
2022-10-05T05:54:16.550Z,11.48
2022-10-05T05:57:34.979Z,11.15
2022-10-05T06:00:49.311Z,10.60
2022-10-05T06:04:14.079Z,9.68
2022-10-05T06:07:21.187Z,9.45
2022-10-05T06:10:26.549Z,8.75
2022-10-05T06:13:40.066Z,10.07
2022-10-05T06:16:47.505Z,10.88
2022-10-05T06:20:02.505Z,9.93
2022-10-05T06:23:18.651Z,11.75
2022-10-05T06:26:42.948Z,10.10
2022-10-05T06:29:48.343Z,12.63
2022-10-05T06:32:50.574Z,11.50
2022-10-05T06:36:12.802Z,13.88
2022-10-05T06:39:42.069Z,10.40
2022-10-05T06:42:50.259Z,10.10
2022-10-05T06:46:20.870Z,12.18
2022-10-05T06:50:16.863Z,9.30
2022-10-05T06:53:47.969Z,10.43
2022-10-05T06:57:36.677Z,9.88
2022-10-05T07:00:52.718Z,10.27
2022-10-05T07:04:14.006Z,10.73
2022-10-05T07:07:30.683Z,9.88
2022-10-05T07:11:14.279Z,10.02
2022-10-05T07:14:31.430Z,12.20
2022-10-05T07:17:39.998Z,10.15
2022-10-05T07:20:54.760Z,8.90
2022-10-05T07:24:00.002Z,9.98
2022-10-05T07:27:05.266Z,9.85
2022-10-05T07:30:11.638Z,10.60
2022-10-05T07:33:26.681Z,10.98
2022-10-05T07:37:07.498Z,12.02
2022-10-05T07:40:29.210Z,8.38
2022-10-05T07:44:12.541Z,11.25
2022-10-05T07:47:31.150Z,10.70
2022-10-05T07:51:09.046Z,11.88
2022-10-05T07:54:26.324Z,13.15
2022-10-05T07:58:06.714Z,10.13
2022-10-05T08:01:26.359Z,11.25
2022-10-05T08:04:45.021Z,10.43
2022-10-05T08:07:50.599Z,11.52
2022-10-05T08:11:02.070Z,10.40
2022-10-05T08:14:16.703Z,8.55
2022-10-05T08:17:29.870Z,12.82
2022-10-05T08:20:55.182Z,10.05
2022-10-05T08:24:37.976Z,13.18
2022-10-05T08:28:20.366Z,11.65
2022-10-05T08:31:41.912Z,7.90
2022-10-05T08:35:17.951Z,12.40
2022-10-05T08:38:27.186Z,9.95
2022-10-05T08:42:01.599Z,9.60
2022-10-05T08:45:25.604Z,11.15
2022-10-05T08:48:52.427Z,9.80
2022-10-05T08:52:09.523Z,12.82
2022-10-05T08:55:36.329Z,12.20
2022-10-05T08:59:02.525Z,12.52
2022-10-05T09:02:28.406Z,11.05
2022-10-05T09:05:58.545Z,7.57
2022-10-05T09:12:11.750Z,8.98
2022-10-05T09:16:07.583Z,9.35
2022-10-05T09:19:33.697Z,11.48
2022-10-05T09:23:02.358Z,9.48
2022-10-05T09:26:23.446Z,9.40
2022-10-05T09:29:59.596Z,9.52
2022-10-05T09:33:29.939Z,9.60
2022-10-05T09:36:41.175Z,10.98
2022-10-05T09:40:13.422Z,11.55
2022-10-05T09:43:34.333Z,8.82
2022-10-05T09:46:58.580Z,8.52
2022-10-05T09:50:06.618Z,11.10
2022-10-05T09:53:20.833Z,10.73
2022-10-05T09:56:53.669Z,10.32
2022-10-05T10:00:22.496Z,9.23
2022-10-05T10:04:01.935Z,10.73
2022-10-05T10:07:21.263Z,12.13
2022-10-05T10:10:36.697Z,14.90
2022-10-05T10:13:53.604Z,12.23
2022-10-05T10:17:27.267Z,11.00
2022-10-05T10:20:58.928Z,11.85
2022-10-05T10:24:10.934Z,13.13
2022-10-05T10:27:50.288Z,14.93
2022-10-05T10:31:02.135Z,13.32
2022-10-05T10:34:20.614Z,9.60
2022-10-05T10:37:42.518Z,12.30
2022-10-05T10:41:12.171Z,11.80
2022-10-05T10:44:47.307Z,9.75
2022-10-05T10:48:11.238Z,10.27
2022-10-05T10:51:22.426Z,11.10
2022-10-05T10:54:41.988Z,12.82
2022-10-05T10:57:57.600Z,11.48
2022-10-05T11:01:39.691Z,10.20
2022-10-05T11:05:01.769Z,14.45
2022-10-05T11:08:28.799Z,12.10
2022-10-05T11:12:01.012Z,14.82
2022-10-05T11:15:28.998Z,11.10
2022-10-05T11:18:40.334Z,12.32
2022-10-05T11:22:16.459Z,12.63
2022-10-05T11:25:54.572Z,14.65
2022-10-05T11:29:31.422Z,14.40
2022-10-05T11:32:52.128Z,13.73
2022-10-05T11:36:42.270Z,14.90
2022-10-05T11:43:54.680Z,12.65
2022-10-05T11:47:26.395Z,15.48
2022-10-05T11:51:03.763Z,15.63
2022-10-05T11:54:38.324Z,10.65
2022-10-05T11:57:49.415Z,14.20
2022-10-05T12:00:51.510Z,15.68
2022-10-05T12:04:22.306Z,16.38
2022-10-05T12:07:42.752Z,13.55
2022-10-05T12:10:50.777Z,15.07
2022-10-05T12:14:03.767Z,13.63
2022-10-05T12:17:41.390Z,15.25
2022-10-05T12:20:48.930Z,15.00
2022-10-05T12:23:54.898Z,15.95
2022-10-05T12:27:12.084Z,17.70
2022-10-05T12:30:34.387Z,19.52
2022-10-05T12:33:42.490Z,16.75
2022-10-05T12:37:03.905Z,15.52
2022-10-05T12:40:21.805Z,15.75
2022-10-05T12:43:45.080Z,17.13
2022-10-05T12:46:55.874Z,21.15
2022-10-05T12:50:24.051Z,15.23
2022-10-05T12:54:16.136Z,19.15
2022-10-05T12:57:23.407Z,15.52
2022-10-05T13:00:28.489Z,19.88
2022-10-05T13:04:17.976Z,16.08
2022-10-05T13:07:28.840Z,18.17
2022-10-05T13:10:35.704Z,17.60
2022-10-05T13:13:40.759Z,20.20
2022-10-05T13:17:15.784Z,16.40
2022-10-05T13:20:37.259Z,17.33
2022-10-05T13:23:57.495Z,19.80
2022-10-05T13:27:08.663Z,18.00
2022-10-05T13:30:19.627Z,21.58
2022-10-05T13:33:27.160Z,23.50
2022-10-05T13:36:50.464Z,19.88
2022-10-05T13:40:10.556Z,18.33
2022-10-05T13:46:38.431Z,20.77
2022-10-05T13:49:57.983Z,18.23
2022-10-05T13:53:16.305Z,17.75
2022-10-05T13:56:37.569Z,22.02
2022-10-05T13:59:49.838Z,22.52
2022-10-05T14:02:57.066Z,21.83
2022-10-05T14:06:26.518Z,22.38
2022-10-05T14:09:35.219Z,21.88
2022-10-05T14:12:43.816Z,23.90
2022-10-05T14:16:26.523Z,20.85
2022-10-05T14:19:41.264Z,22.52
2022-10-05T14:22:45.595Z,18.48
2022-10-05T14:25:53.898Z,25.25
2022-10-05T14:28:59.026Z,19.42
2022-10-05T14:32:23.972Z,23.08
2022-10-05T14:35:31.203Z,23.98
2022-10-05T14:38:50.668Z,22.65
2022-10-05T14:41:53.176Z,23.20
2022-10-05T14:45:14.092Z,22.17
2022-10-05T14:48:17.383Z,24.48
2022-10-05T14:51:31.890Z,22.90
2022-10-05T14:54:41.379Z,25.33
2022-10-05T14:57:56.308Z,22.85
2022-10-05T15:04:40.831Z,22.65
2022-10-05T15:07:49.487Z,18.85
2022-10-05T15:11:03.125Z,20.63
2022-10-05T15:14:20.593Z,24.75
2022-10-05T15:17:30.337Z,22.52
2022-10-05T15:20:50.251Z,21.95
2022-10-05T15:23:57.600Z,23.98
2022-10-05T15:27:04.148Z,19.95
2022-10-05T15:30:11.657Z,20.17
2022-10-05T15:33:50.789Z,23.58
2022-10-05T15:40:38.614Z,20.70
2022-10-05T15:43:59.413Z,21.13
2022-10-05T15:47:09.122Z,20.55
2022-10-05T15:50:14.076Z,23.70
2022-10-05T15:53:26.765Z,22.40
2022-10-05T15:56:38.698Z,25.90
2022-10-05T15:59:53.302Z,24.00
2022-10-05T16:03:13.444Z,25.48
2022-10-05T16:06:57.651Z,22.80
2022-10-05T16:10:22.444Z,22.05
2022-10-05T16:14:06.170Z,19.60
2022-10-05T16:17:29.461Z,23.08
2022-10-05T16:20:35.793Z,23.45
2022-10-05T16:23:55.888Z,25.73
2022-10-05T16:30:11.940Z,22.65
2022-10-05T16:36:58.856Z,16.38
2022-10-05T16:40:29.910Z,18.15
2022-10-05T16:43:41.595Z,20.20
2022-10-05T16:46:57.867Z,17.40
2022-10-05T16:50:04.213Z,16.38
2022-10-05T16:53:33.203Z,19.20
2022-10-05T17:00:54.679Z,18.67
2022-10-05T17:04:05.998Z,18.42
2022-10-05T17:07:14.291Z,19.20
2022-10-05T17:10:19.192Z,14.77
2022-10-05T17:13:24.234Z,18.13
2022-10-05T17:16:35.468Z,18.55
2022-10-05T17:20:10.138Z,17.38
2022-10-05T17:23:34.378Z,17.50
2022-10-05T17:26:57.586Z,22.30
2022-10-05T17:30:48.447Z,14.73
2022-10-05T17:34:15.450Z,13.88
2022-10-05T17:41:01.166Z,16.88
2022-10-05T17:44:21.262Z,16.73
2022-10-05T17:48:03.310Z,19.23
2022-10-05T17:51:48.696Z,20.08
2022-10-05T17:58:31.523Z,19.63
2022-10-05T18:01:40.453Z,14.43
2022-10-05T18:04:51.083Z,19.70
2022-10-05T18:15:45.044Z,18.95
2022-10-05T18:18:56.598Z,19.17
2022-10-05T18:22:15.543Z,16.73
2022-10-05T18:25:42.959Z,21.80
2022-10-05T18:29:14.529Z,18.38
2022-10-05T18:32:32.546Z,20.17
2022-10-05T18:35:44.245Z,25.25
2022-10-05T18:39:03.145Z,18.50
2022-10-05T18:49:47.368Z,19.55
2022-10-05T18:52:52.299Z,19.35
2022-10-05T18:55:59.040Z,22.48
2022-10-05T18:59:32.212Z,20.33
2022-10-05T19:02:43.190Z,19.58
2022-10-05T19:06:04.492Z,21.52
2022-10-05T19:09:18.691Z,20.58
2022-10-05T19:12:20.894Z,23.73
2022-10-05T19:15:36.496Z,21.77
2022-10-05T19:18:41.595Z,20.73
2022-10-05T19:22:31.975Z,22.13
2022-10-05T19:25:50.433Z,20.85
2022-10-05T19:29:20.127Z,19.58
2022-10-05T19:32:40.537Z,26.00
2022-10-05T19:36:04.701Z,27.55
2022-10-05T19:39:28.742Z,20.65
2022-10-05T19:43:07.603Z,20.73
2022-10-05T19:46:19.048Z,23.23
2022-10-05T19:49:43.277Z,19.13
2022-10-05T19:52:49.793Z,19.02
2022-10-05T19:55:54.224Z,20.33
2022-10-05T19:58:57.653Z,20.40
2022-10-05T20:02:00.373Z,17.27
2022-10-05T20:05:07.274Z,19.45
2022-10-05T20:08:17.720Z,19.60
2022-10-05T20:11:27.146Z,16.98
2022-10-05T20:14:33.755Z,16.67
2022-10-05T20:17:54.687Z,15.57
2022-10-05T20:20:57.034Z,14.68
2022-10-05T20:24:11.279Z,16.23
2022-10-05T20:27:51.999Z,16.17
2022-10-05T20:30:54.972Z,14.75
2022-10-05T20:33:59.562Z,15.35
2022-10-05T20:37:01.672Z,15.77
2022-10-05T20:40:05.249Z,16.02
2022-10-05T20:43:08.303Z,16.60
2022-10-05T20:46:10.414Z,16.92
2022-10-05T20:49:12.694Z,16.15
2022-10-05T20:52:15.839Z,17.85
2022-10-05T20:55:17.991Z,14.98
2022-10-05T20:58:20.203Z,16.58
2022-10-05T21:01:27.091Z,13.60
2022-10-05T21:04:40.819Z,14.38
2022-10-05T21:07:44.462Z,12.85
2022-10-05T21:10:47.157Z,19.08
2022-10-05T21:13:49.867Z,13.75
2022-10-05T21:16:52.674Z,14.77
2022-10-05T21:19:54.972Z,15.57
2022-10-05T21:22:57.126Z,16.45
2022-10-05T21:26:01.092Z,14.85
2022-10-05T21:29:07.790Z,15.07
2022-10-05T21:32:12.438Z,16.97
2022-10-05T21:35:14.896Z,13.45
2022-10-05T21:38:17.230Z,18.15
2022-10-05T21:41:20.091Z,14.80
2022-10-05T21:44:22.616Z,15.07
2022-10-05T21:47:26.213Z,13.60
2022-10-05T21:50:28.526Z,18.95
2022-10-05T21:53:33.952Z,14.52
2022-10-05T21:56:39.573Z,14.52
2022-10-05T21:59:42.857Z,14.68
2022-10-05T22:02:44.969Z,13.95
2022-10-05T22:05:47.345Z,15.27
2022-10-05T22:08:49.642Z,15.77
2022-10-05T22:11:51.893Z,15.25
2022-10-05T22:14:54.601Z,15.10
2022-10-05T22:17:59.889Z,14.32
2022-10-05T22:21:02.070Z,14.77
2022-10-05T22:24:04.730Z,18.48
2022-10-05T22:27:07.142Z,13.98
2022-10-05T22:30:09.756Z,16.35
2022-10-05T22:33:13.397Z,16.45
2022-10-05T22:36:16.311Z,16.25
2022-10-05T22:39:18.744Z,14.73
2022-10-05T22:42:21.392Z,15.48
2022-10-05T22:45:23.866Z,15.57
2022-10-05T22:48:26.491Z,13.10
2022-10-05T22:51:29.061Z,14.30
2022-10-05T22:54:34.309Z,13.63
2022-10-05T22:57:43.005Z,14.80
2022-10-05T23:00:58.213Z,15.18
2022-10-05T23:04:01.220Z,15.02
2022-10-05T23:07:03.330Z,13.23
2022-10-05T23:10:07.340Z,14.88
2022-10-05T23:13:09.476Z,16.67
2022-10-05T23:16:15.537Z,14.98
2022-10-05T23:19:17.830Z,16.02
2022-10-05T23:22:21.549Z,15.02
2022-10-05T23:25:25.662Z,14.38
2022-10-05T23:28:29.459Z,15.50
2022-10-05T23:31:33.558Z,14.70
2022-10-05T23:34:35.839Z,13.95
2022-10-05T23:37:43.272Z,13.30
2022-10-05T23:40:47.522Z,14.65
2022-10-05T23:43:49.840Z,15.70
2022-10-05T23:46:51.902Z,14.90
2022-10-05T23:49:55.651Z,13.82
2022-10-05T23:52:57.762Z,15.10
2022-10-05T23:56:00.186Z,15.80
2022-10-05T23:59:03.158Z,15.60
